Terminal Aerodrome Forecast
Issued by NWS Atlanta, GA

Home | Current Version | Previous Version | Text Only | Print | Product List | Glossary On
Versions: 1 2 3 4 5 6 7 8 9 10 11 12 13 14 15 16 17 18 19 20 21 22 23 24 25
000
FTUS42 KFFC 121200 AAA
TAFCSG
TAF AMD
KCSG 121223Z 1212/1312 11005KT P6SM SCT008
      TEMPO 1212/1214 6SM BR BKN007
     FM121400 09007KT P6SM SCT030
     FM121800 10007KT P6SM BKN050 PROB30 1221/1224 5SM TSRA BR
      BKN025CB
     FM130100 10006KT P6SM FEW250=

USA.gov is the U.S. government's official web portal to all federal, state and local government web resources and services.